LOT225A EPSC-EPKK
Flight info
| Callsign | LOT225A |
|---|---|
| Flight time | N/A |
| Altitude | 31000 |
| Route | APNEZ DCT DENKO L619 ADVAB L623 UWLER |
| Aircraft | B738/M-SDE2E3FGHIRWXY/LB1 |
Departure
| Time | 2026-04-26 20:08 |
|---|---|
| Airport | Solidarity Szczecin–Goleniów Airport (EPSC) |
Arrival
| Time | N/A |
|---|---|
| Airport | Kraków John Paul II International Airport (EPKK) |
| Time | Latitude | Longitude | Altitude | Speed | Heading |
|---|---|---|---|---|---|
| 2026-04-26 19:38 | 53.59247 | 14.89400 | 131 ft | 0 kts | 48° |
| 2026-04-26 20:00 | 53.59249 | 14.89418 | 131 ft | 3 kts | 94° |
| 2026-04-26 20:01 | 53.59233 | 14.89428 | 131 ft | 3 kts | 194° |
| 2026-04-26 20:01 | 53.59227 | 14.89387 | 127 ft | 7 kts | 264° |
| 2026-04-26 20:01 | 53.59189 | 14.89310 | 128 ft | 10 kts | 197° |
| 2026-04-26 20:01 | 53.59134 | 14.89365 | 132 ft | 10 kts | 133° |
| 2026-04-26 20:02 | 53.59082 | 14.89461 | 133 ft | 13 kts | 133° |
| 2026-04-26 20:02 | 53.59017 | 14.89594 | 135 ft | 16 kts | 131° |
| 2026-04-26 20:02 | 53.58934 | 14.89751 | 137 ft | 19 kts | 130° |
| 2026-04-26 20:02 | 53.58872 | 14.89874 | 139 ft | 21 kts | 131° |
| 2026-04-26 20:03 | 53.58735 | 14.90142 | 143 ft | 24 kts | 132° |
| 2026-04-26 20:03 | 53.58609 | 14.90341 | 146 ft | 23 kts | 132° |
| 2026-04-26 20:03 | 53.58513 | 14.90572 | 149 ft | 25 kts | 128° |
| 2026-04-26 20:03 | 53.58402 | 14.90780 | 152 ft | 23 kts | 131° |
| 2026-04-26 20:04 | 53.58298 | 14.90984 | 155 ft | 22 kts | 129° |
| 2026-04-26 20:04 | 53.58199 | 14.91181 | 158 ft | 22 kts | 129° |
| 2026-04-26 20:04 | 53.58099 | 14.91367 | 160 ft | 21 kts | 131° |
| 2026-04-26 20:04 | 53.58006 | 14.91553 | 162 ft | 20 kts | 131° |
| 2026-04-26 20:05 | 53.57913 | 14.91727 | 164 ft | 16 kts | 130° |
| 2026-04-26 20:05 | 53.57825 | 14.91738 | 164 ft | 7 kts | 222° |
| 2026-04-26 20:05 | 53.57822 | 14.91733 | 164 ft | 0 kts | 220° |
| 2026-04-26 20:06 | 53.57822 | 14.91734 | 164 ft | 0 kts | 220° |
| 2026-04-26 20:06 | 53.57810 | 14.91717 | 164 ft | 8 kts | 219° |
| 2026-04-26 20:06 | 53.57762 | 14.91634 | 164 ft | 9 kts | 245° |
| 2026-04-26 20:07 | 53.57788 | 14.91547 | 165 ft | 9 kts | 314° |
| 2026-04-26 20:07 | 53.57796 | 14.91533 | 165 ft | 7 kts | 313° |
| 2026-04-26 20:07 | 53.57985 | 14.91169 | 162 ft | 77 kts | 310° |
| 2026-04-26 20:07 | 53.58486 | 14.90197 | 149 ft | 140 kts | 310° |
| 2026-04-26 20:08 | 53.59223 | 14.88766 | 360 ft | 171 kts | 310° |
| 2026-04-26 20:08 | 53.59984 | 14.87232 | 1140 ft | 171 kts | 309° |
| 2026-04-26 20:08 | 53.60718 | 14.85671 | 2054 ft | 168 kts | 309° |
| 2026-04-26 20:08 | 53.61470 | 14.84206 | 3019 ft | 164 kts | 312° |
| 2026-04-26 20:09 | 53.62266 | 14.82681 | 3534 ft | 189 kts | 311° |
| 2026-04-26 20:09 | 53.63164 | 14.80824 | 3670 ft | 220 kts | 303° |
| 2026-04-26 20:09 | 53.63591 | 14.78267 | 4206 ft | 232 kts | 270° |
| 2026-04-26 20:09 | 53.63073 | 14.75706 | 5076 ft | 243 kts | 237° |
| 2026-04-26 20:10 | 53.61922 | 14.73387 | 5414 ft | 270 kts | 229° |
| 2026-04-26 20:10 | 53.60461 | 14.71402 | 6413 ft | 271 kts | 217° |
| 2026-04-26 20:10 | 53.58668 | 14.70224 | 7032 ft | 293 kts | 184° |
| 2026-04-26 20:10 | 53.56656 | 14.70739 | 7977 ft | 294 kts | 163° |
| 2026-04-26 20:11 | 53.54799 | 14.72272 | 8678 ft | 306 kts | 144° |
| 2026-04-26 20:11 | 53.53231 | 14.74835 | 9190 ft | 318 kts | 129° |
| 2026-04-26 20:11 | 53.51893 | 14.77617 | 10650 ft | 294 kts | 127° |
| 2026-04-26 20:12 | 53.49301 | 14.83142 | 11820 ft | 319 kts | 129° |
| 2026-04-26 20:12 | 53.47824 | 14.86107 | 12022 ft | 343 kts | 129° |
| 2026-04-26 20:12 | 53.46246 | 14.89285 | 12223 ft | 366 kts | 129° |
| 2026-04-26 20:12 | 53.44589 | 14.92646 | 12660 ft | 379 kts | 129° |
| 2026-04-26 20:13 | 53.42883 | 14.96070 | 13319 ft | 386 kts | 130° |
| 2026-04-26 20:13 | 53.41120 | 14.99496 | 14042 ft | 390 kts | 130° |
| 2026-04-26 20:13 | 53.39320 | 15.02953 | 14672 ft | 396 kts | 131° |
| 2026-04-26 20:13 | 53.37503 | 15.06434 | 15324 ft | 399 kts | 131° |
| 2026-04-26 20:14 | 53.35668 | 15.09952 | 16007 ft | 403 kts | 131° |